logo
Search for airport 
image banner adimage banner adimage banner ad
image banner ad

ZWSH - Kashi/Kashi

Located in Kashi, China

ICAO - ZWSH, IATA - KHG

Data provided by Airmate  

General information

Coordinates: N39°32'42" E76°1'18"
Elevation is 4528 feet MSL.
 
View others Airports in Xinjiang Autonomous Region

Operational data

Special qualification required
Current time UTC:
Current local time:
Weather
METAR: ZWSH 140200Z 25003MPS 6000 BKN040 19/M10 Q1013 NOSIG
TAF: TAF ZWSH 132102Z 1400/1424 08004MPS 3500 DU FEW033CB SCT040 TX25/1409Z TN16/1400Z
View NOTAMs / SUP AIP / TFR affecting this airport [VIEW]
Communications frequencies: [VIEW]

Runways:

RWY identifierQFULength (ft)Width (ft)SurfaceLDA (ft)
0886°10499148CON
26266°10499148CON

Airport contact information

Address: Kashi China

Satellite view of ZWSH